Bf Esperanza — V2BR8 — position and weather

sailwx.info

Track history (hours):
 
Tides and Currents Weather Stations Pressure Air Temp Water Temp Dewpoint Dewpoint Depression Visibility Wind Speed Wind Dir Waves Ship Positions

Bf Esperanza

Last reported at 2016-Feb-08 05:29 UTC. Time now 2016-Feb-11 13:02 UTC.
Position N 35°51' W 005°58'.

Length 135 m; draft 8.6 m.

Type: Ship (hazmat cat A). MMSI: 304907000.

Date/timePositionNaut miles runAvg speedWind from/ knotsBaromVisibWave heightAir tempDewpointWater temp
2016-Feb-08 05:29N 35°51' W 005°58'1210.5
2016-Feb-08 04:23N 35°57' W 005°46'8 9.9
2016-Feb-08 03:32N 35°57' W 005°36'1110.9
2016-Feb-08 02:33N 36°01' W 005°23'21011.5
2016-Feb-07 08:19N 37°05' W 001°15'912.0
2016-Feb-07 07:33N 37°11' W 001°06'1312.8
2016-Feb-07 06:33N 37°20' W 000°55'1312.5
2016-Feb-07 05:33N 37°28' W 000°42'3 2.7
2016-Feb-07 04:33N 37°29' W 000°40'1010.1
2016-Feb-07 03:33N 37°37' W 000°32'1212.3
2016-Feb-07 02:33N 37°48' W 000°25'1313.0
2016-Feb-07 01:33N 37°59' W 000°16'8710.9
2016-Feb-06 17:33N 39°26' W 000°19'1 0.8
2016-Feb-06 16:32N 39°27' W 000°19'0 0.0
2016-Feb-06 15:33N 39°27' W 000°19'0 0.0
2016-Feb-06 14:30N 39°27' W 000°19'0 0.0
2016-Feb-06 13:28N 39°27' W 000°19'0 0.0
2016-Feb-06 12:33N 39°27' W 000°19'0 0.0
2016-Feb-06 11:33N 39°27' W 000°19'0 0.0
2016-Feb-06 10:33N 39°27' W 000°19'0 0.0
2016-Feb-06 09:33N 39°27' W 000°19'0 0.0
2016-Feb-06 08:33N 39°27' W 000°19'0 0.0
2016-Feb-06 07:33N 39°27' W 000°19'4 3.6
2016-Feb-06 06:33N 39°25' W 000°15'7311.9
2016-Feb-06 00:22N 40°17' E 000°53'4911.4
2016-Feb-05 20:05N 40°56' E 001°31'714.3
2016-Feb-05 19:34N 40°60' E 001°40'2114.2
2016-Feb-05 18:04N 41°12' E 002°03'713.9
2016-Feb-05 17:32N 41°16' E 002°11'5 5.0
2016-Feb-05 16:33N 41°21' E 002°10'0 0.0
2016-Feb-05 15:31N 41°21' E 002°10'0 0.0
2016-Feb-05 14:32N 41°21' E 002°10'0 0.0
2016-Feb-05 13:33N 41°21' E 002°10'0 0.0
2016-Feb-05 12:33N 41°21' E 002°10'0 0.0
2016-Feb-05 11:33N 41°21' E 002°10'0 0.0
2016-Feb-05 10:31N 41°21' E 002°10'0 0.0
2016-Feb-05 09:29N 41°21' E 002°10'0 0.0
2016-Feb-05 08:29N 41°21' E 002°10'0 0.0
2016-Feb-05 07:22N 41°21' E 002°10'1 1.4
2016-Feb-05 06:33N 41°20' E 002°10'6 5.1
2016-Feb-05 05:25N 41°15' E 002°12'3 3.7
2016-Feb-05 04:33N 41°11' E 002°11'13710.5
2016-Feb-04 15:33N 43°05' E 003°54'1212.4
2016-Feb-04 14:33N 43°06' E 004°11'1212.3
2016-Feb-04 13:33N 43°07' E 004°28'1312.6
2016-Feb-04 12:33N 43°08' E 004°45'1212.4
2016-Feb-04 11:34N 43°10' E 005°02'1110.6
2016-Feb-04 10:33N 43°17' E 005°12'7 0.2
2016-Feb-02 19:33N 43°21' E 005°20'10 9.7
2016-Feb-02 18:33N 43°14' E 005°11'1414.0
2016-Feb-02 17:33N 43°07' E 004°54'1514.7
2016-Feb-02 16:33N 43°01' E 004°36'105 3.1
2016-Feb-01 06:33N 41°41' E 003°04'1616.0
2016-Feb-01 05:33N 41°31' E 002°47'1616.0
2016-Feb-01 04:33N 41°22' E 002°30'1615.6
2016-Feb-01 03:33N 41°08' E 002°20'1615.6
2016-Feb-01 02:33N 40°55' E 002°09'1616.0
2016-Feb-01 01:33N 40°41' E 001°58'1615.8
2016-Feb-01 00:33N 40°27' E 001°48'1616.0
2016-Jan-31 23:33N 40°14' E 001°37'1616.1
2016-Jan-31 22:33N 39°59' E 001°27'4916.2
2016-Jan-31 19:33N 39°18' E 000°55'5416.5
2016-Jan-31 16:18N 38°32' E 000°19'2916.7
2016-Jan-31 14:33N 38°08' W 000°02'1616.5
2016-Jan-31 13:33N 37°54' W 000°13'1616.3
2016-Jan-31 12:34N 37°40' W 000°25'1616.1
2016-Jan-31 11:32N 37°28' W 000°38'1716.3
2016-Jan-31 10:31N 37°17' W 000°54'1616.2
2016-Jan-31 09:31N 37°06' W 001°09'4016.1
2016-Jan-31 07:04N 36°40' W 001°46'3016.1
2016-Jan-31 05:12N 36°22' W 002°16'14516.7
2016-Jan-30 20:33N 35°60' W 005°13'  
Track history (hours):
 
Tides and Currents Weather Stations Pressure Air Temp Water Temp Dewpoint Dewpoint Depression Visibility Wind Speed Wind Dir Waves Ship Positions

Bf Esperanza

Last reported at 2016-Feb-08 05:29 UTC. Time now 2016-Feb-11 13:02 UTC.
Position N 35°51' W 005°58'.

Length 135 m; draft 8.6 m.

Type: Ship (hazmat cat A). MMSI: 304907000.

Date/timePositionNaut miles runAvg speedWind from/ knotsBaromVisibWave heightAir tempDewpointWater temp
2016-Feb-08 05:29N 35°51' W 005°58'1210.5
2016-Feb-08 04:23N 35°57' W 005°46'8 9.9
2016-Feb-08 03:32N 35°57' W 005°36'1110.9
2016-Feb-08 02:33N 36°01' W 005°23'21011.5
2016-Feb-07 08:19N 37°05' W 001°15'912.0
2016-Feb-07 07:33N 37°11' W 001°06'1312.8
2016-Feb-07 06:33N 37°20' W 000°55'1312.5
2016-Feb-07 05:33N 37°28' W 000°42'3 2.7
2016-Feb-07 04:33N 37°29' W 000°40'1010.1
2016-Feb-07 03:33N 37°37' W 000°32'1212.3
2016-Feb-07 02:33N 37°48' W 000°25'1313.0
2016-Feb-07 01:33N 37°59' W 000°16'8710.9
2016-Feb-06 17:33N 39°26' W 000°19'1 0.8
2016-Feb-06 16:32N 39°27' W 000°19'0 0.0
2016-Feb-06 15:33N 39°27' W 000°19'0 0.0
2016-Feb-06 14:30N 39°27' W 000°19'0 0.0
2016-Feb-06 13:28N 39°27' W 000°19'0 0.0
2016-Feb-06 12:33N 39°27' W 000°19'0 0.0
2016-Feb-06 11:33N 39°27' W 000°19'0 0.0
2016-Feb-06 10:33N 39°27' W 000°19'0 0.0
2016-Feb-06 09:33N 39°27' W 000°19'0 0.0
2016-Feb-06 08:33N 39°27' W 000°19'0 0.0
2016-Feb-06 07:33N 39°27' W 000°19'4 3.6
2016-Feb-06 06:33N 39°25' W 000°15'7311.9
2016-Feb-06 00:22N 40°17' E 000°53'4911.4
2016-Feb-05 20:05N 40°56' E 001°31'714.3
2016-Feb-05 19:34N 40°60' E 001°40'2114.2
2016-Feb-05 18:04N 41°12' E 002°03'713.9
2016-Feb-05 17:32N 41°16' E 002°11'5 5.0
2016-Feb-05 16:33N 41°21' E 002°10'0 0.0
2016-Feb-05 15:31N 41°21' E 002°10'0 0.0
2016-Feb-05 14:32N 41°21' E 002°10'0 0.0
2016-Feb-05 13:33N 41°21' E 002°10'0 0.0
2016-Feb-05 12:33N 41°21' E 002°10'0 0.0
2016-Feb-05 11:33N 41°21' E 002°10'0 0.0
2016-Feb-05 10:31N 41°21' E 002°10'0 0.0
2016-Feb-05 09:29N 41°21' E 002°10'0 0.0
2016-Feb-05 08:29N 41°21' E 002°10'0 0.0
2016-Feb-05 07:22N 41°21' E 002°10'1 1.4
2016-Feb-05 06:33N 41°20' E 002°10'6 5.1
2016-Feb-05 05:25N 41°15' E 002°12'3 3.7
2016-Feb-05 04:33N 41°11' E 002°11'13710.5
2016-Feb-04 15:33N 43°05' E 003°54'1212.4
2016-Feb-04 14:33N 43°06' E 004°11'1212.3
2016-Feb-04 13:33N 43°07' E 004°28'1312.6
2016-Feb-04 12:33N 43°08' E 004°45'1212.4
2016-Feb-04 11:34N 43°10' E 005°02'1110.6
2016-Feb-04 10:33N 43°17' E 005°12'7 0.2
2016-Feb-02 19:33N 43°21' E 005°20'10 9.7
2016-Feb-02 18:33N 43°14' E 005°11'1414.0
2016-Feb-02 17:33N 43°07' E 004°54'1514.7
2016-Feb-02 16:33N 43°01' E 004°36'105 3.1
2016-Feb-01 06:33N 41°41' E 003°04'1616.0
2016-Feb-01 05:33N 41°31' E 002°47'1616.0
2016-Feb-01 04:33N 41°22' E 002°30'1615.6
2016-Feb-01 03:33N 41°08' E 002°20'1615.6
2016-Feb-01 02:33N 40°55' E 002°09'1616.0
2016-Feb-01 01:33N 40°41' E 001°58'1615.8
2016-Feb-01 00:33N 40°27' E 001°48'1616.0
2016-Jan-31 23:33N 40°14' E 001°37'1616.1
2016-Jan-31 22:33N 39°59' E 001°27'4916.2
2016-Jan-31 19:33N 39°18' E 000°55'5416.5
2016-Jan-31 16:18N 38°32' E 000°19'2916.7
2016-Jan-31 14:33N 38°08' W 000°02'1616.5
2016-Jan-31 13:33N 37°54' W 000°13'1616.3
2016-Jan-31 12:34N 37°40' W 000°25'1616.1
2016-Jan-31 11:32N 37°28' W 000°38'1716.3
2016-Jan-31 10:31N 37°17' W 000°54'1616.2
2016-Jan-31 09:31N 37°06' W 001°09'4016.1
2016-Jan-31 07:04N 36°40' W 001°46'3016.1
2016-Jan-31 05:12N 36°22' W 002°16'14516.7
2016-Jan-30 20:33N 35°60' W 005°13'  

Dump ship's entire track history